createdAt,value
2023-02-24T00:00:38.609Z,2.00
2023-02-24T00:03:11.569Z,1.93
2023-02-24T00:05:42.931Z,3.30
2023-02-24T00:08:11.446Z,2.03
2023-02-24T00:10:41.789Z,3.30
2023-02-24T00:13:12.266Z,3.33
2023-02-24T00:15:40.506Z,2.53
2023-02-24T00:18:08.589Z,2.27
2023-02-24T00:20:37.475Z,2.60
2023-02-24T00:23:05.671Z,3.53
2023-02-24T00:25:33.797Z,2.47
2023-02-24T00:28:03.455Z,3.50
2023-02-24T00:30:33.096Z,2.30
2023-02-24T00:33:02.945Z,1.93
2023-02-24T00:35:31.039Z,1.73
2023-02-24T00:37:59.651Z,2.70
2023-02-24T00:40:30.427Z,2.83
2023-02-24T00:42:58.658Z,2.10
2023-02-24T00:45:31.021Z,2.07
2023-02-24T00:47:59.464Z,2.87
2023-02-24T00:50:27.606Z,2.20
2023-02-24T00:52:55.733Z,2.90
2023-02-24T00:55:24.096Z,2.57
2023-02-24T00:57:52.160Z,2.13
2023-02-24T01:00:23.472Z,3.23
2023-02-24T01:02:53.012Z,1.93
2023-02-24T01:05:21.417Z,3.10
2023-02-24T01:07:49.524Z,3.17
2023-02-24T01:10:18.489Z,3.23
2023-02-24T01:12:51.239Z,3.03
2023-02-24T01:15:21.849Z,3.40
2023-02-24T01:17:50.013Z,2.63
2023-02-24T01:20:19.900Z,2.33
2023-02-24T01:22:50.550Z,2.20
2023-02-24T01:25:20.537Z,2.80
2023-02-24T01:27:49.104Z,2.43
2023-02-24T01:30:18.535Z,2.67
2023-02-24T01:32:48.220Z,1.57
2023-02-24T01:35:16.971Z,3.57
2023-02-24T01:37:46.558Z,2.60
2023-02-24T01:40:21.849Z,2.50
2023-02-24T01:42:50.838Z,1.87
2023-02-24T01:45:22.867Z,3.00
2023-02-24T01:47:54.209Z,2.80
2023-02-24T01:50:26.269Z,1.90
2023-02-24T01:52:58.979Z,3.13
2023-02-24T01:55:32.224Z,2.90
2023-02-24T01:58:06.043Z,2.27
2023-02-24T02:00:38.406Z,1.83
2023-02-24T02:03:15.721Z,3.40
2023-02-24T02:05:45.384Z,2.70
2023-02-24T02:08:16.745Z,1.87
2023-02-24T02:10:45.516Z,1.60
2023-02-24T02:13:21.158Z,2.33
2023-02-24T02:16:13.841Z,2.63
2023-02-24T02:18:56.392Z,3.00
2023-02-24T02:22:03.992Z,2.00
2023-02-24T02:24:53.908Z,2.13
2023-02-24T02:27:45.260Z,2.27
2023-02-24T02:30:48.032Z,2.50
2023-02-24T02:34:00.631Z,1.83
2023-02-24T02:36:38.842Z,2.97
2023-02-24T02:39:14.818Z,3.03
2023-02-24T02:41:51.055Z,2.13
2023-02-24T02:44:25.381Z,2.70
2023-02-24T02:47:01.406Z,2.33
2023-02-24T02:49:35.566Z,3.90
2023-02-24T02:52:13.844Z,2.83
2023-02-24T02:54:49.888Z,2.07
2023-02-24T02:57:21.841Z,1.67
2023-02-24T02:59:54.837Z,2.77
2023-02-24T03:02:29.843Z,2.93
2023-02-24T03:05:02.199Z,2.00
2023-02-24T03:07:37.674Z,3.00
2023-02-24T03:10:11.429Z,1.83
2023-02-24T03:12:42.076Z,2.80
2023-02-24T03:15:14.274Z,2.23
2023-02-24T03:17:46.524Z,3.50
2023-02-24T03:20:22.774Z,3.60
2023-02-24T03:22:57.658Z,2.50
2023-02-24T03:25:30.299Z,3.40
2023-02-24T03:28:06.089Z,2.57
2023-02-24T03:30:42.515Z,2.10
2023-02-24T03:33:18.315Z,2.80
2023-02-24T03:35:46.746Z,2.30
2023-02-24T03:38:16.263Z,3.13
2023-02-24T03:40:44.571Z,2.37
2023-02-24T03:43:17.695Z,2.30
2023-02-24T03:45:46.801Z,4.47
2023-02-24T03:48:16.156Z,2.73
2023-02-24T03:50:45.104Z,2.07
2023-02-24T03:53:31.777Z,2.43
2023-02-24T03:56:11.122Z,2.00
2023-02-24T03:58:53.766Z,2.43
2023-02-24T04:01:31.128Z,1.90
2023-02-24T04:04:04.804Z,2.50
2023-02-24T04:06:41.948Z,2.90
2023-02-24T04:09:20.313Z,2.53
2023-02-24T04:11:56.403Z,4.47
2023-02-24T04:14:30.824Z,2.30
2023-02-24T04:17:04.081Z,3.13
2023-02-24T04:19:38.553Z,2.20
2023-02-24T04:22:07.980Z,3.03
2023-02-24T04:24:40.754Z,3.50
2023-02-24T04:27:13.193Z,3.50
2023-02-24T04:29:47.366Z,3.33
2023-02-24T04:32:18.893Z,3.20
2023-02-24T04:34:47.187Z,2.80
2023-02-24T04:37:15.418Z,2.37
2023-02-24T04:39:46.211Z,3.83
2023-02-24T04:42:14.467Z,1.83
2023-02-24T04:44:42.970Z,3.03
2023-02-24T04:47:12.719Z,2.40
2023-02-24T04:49:41.605Z,2.17
2023-02-24T04:52:10.535Z,3.00
2023-02-24T04:54:39.274Z,3.17
2023-02-24T04:57:10.728Z,2.37
2023-02-24T04:59:39.050Z,2.93
2023-02-24T05:02:07.251Z,2.50
2023-02-24T05:04:39.023Z,2.77
2023-02-24T05:07:07.253Z,2.20
2023-02-24T05:09:35.483Z,3.73
2023-02-24T05:12:05.307Z,2.80
2023-02-24T05:14:34.943Z,3.83
2023-02-24T05:17:03.203Z,4.00
2023-02-24T05:19:48.485Z,2.37
2023-02-24T05:22:17.843Z,2.57
2023-02-24T05:24:48.143Z,3.83
2023-02-24T05:27:17.476Z,3.37
2023-02-24T05:29:47.600Z,2.37
2023-02-24T05:32:17.031Z,2.27
2023-02-24T05:34:45.353Z,1.93
2023-02-24T05:37:16.785Z,4.47
2023-02-24T05:39:45.144Z,3.17
2023-02-24T05:42:13.484Z,3.00
2023-02-24T05:44:41.910Z,3.27
2023-02-24T05:47:11.871Z,3.13
2023-02-24T05:49:40.274Z,4.23
2023-02-24T05:52:10.202Z,1.73
2023-02-24T05:54:40.617Z,3.77
2023-02-24T05:57:12.193Z,4.70
2023-02-24T05:59:41.176Z,3.07
2023-02-24T06:02:13.212Z,2.73
2023-02-24T06:04:51.467Z,2.57
2023-02-24T06:07:24.958Z,1.43
2023-02-24T06:09:56.619Z,1.87
2023-02-24T06:12:27.754Z,3.60
2023-02-24T06:14:55.883Z,2.77
2023-02-24T06:19:52.255Z,3.67
2023-02-24T06:22:22.924Z,3.90
2023-02-24T06:24:51.225Z,4.00
2023-02-24T06:27:21.847Z,2.07
2023-02-24T06:29:52.193Z,2.10
2023-02-24T06:32:21.536Z,2.07
2023-02-24T06:34:52.534Z,2.57
2023-02-24T06:37:21.084Z,3.57
2023-02-24T06:39:49.269Z,3.50
2023-02-24T06:42:17.367Z,3.23
2023-02-24T06:44:45.405Z,3.23
2023-02-24T06:47:18.094Z,1.57
2023-02-24T06:49:46.421Z,2.07
2023-02-24T06:52:19.199Z,2.03
2023-02-24T06:54:49.688Z,2.73
2023-02-24T06:57:18.024Z,2.97
2023-02-24T06:59:46.525Z,3.10
2023-02-24T07:02:14.641Z,2.93
2023-02-24T07:04:44.835Z,3.83
2023-02-24T07:07:14.851Z,3.20
2023-02-24T07:09:45.561Z,4.53
2023-02-24T07:12:15.742Z,3.03
2023-02-24T07:14:44.176Z,4.23
2023-02-24T07:17:14.891Z,3.83
2023-02-24T07:19:44.285Z,2.70
2023-02-24T07:22:14.836Z,3.53
2023-02-24T07:24:46.503Z,2.10
2023-02-24T07:27:22.554Z,3.33
2023-02-24T07:29:53.123Z,2.23
2023-02-24T07:32:22.884Z,3.47
2023-02-24T07:34:51.250Z,4.60
2023-02-24T07:37:20.756Z,4.33
2023-02-24T07:39:50.455Z,4.87
2023-02-24T07:42:18.611Z,3.33
2023-02-24T07:44:49.363Z,3.67
2023-02-24T07:47:17.676Z,5.10
2023-02-24T07:49:45.930Z,4.17
2023-02-24T07:52:14.336Z,3.33
2023-02-24T07:54:42.459Z,3.07
2023-02-24T07:57:14.382Z,3.63
2023-02-24T07:59:47.679Z,3.57
2023-02-24T08:02:16.599Z,3.03
2023-02-24T08:04:50.480Z,4.87
2023-02-24T08:07:25.019Z,3.37
2023-02-24T08:10:24.346Z,4.43
2023-02-24T08:12:55.740Z,5.73
2023-02-24T08:15:26.153Z,4.40
2023-02-24T08:17:59.619Z,3.40
2023-02-24T08:20:30.097Z,5.23
2023-02-24T08:22:58.457Z,3.93
2023-02-24T08:25:35.841Z,4.10
2023-02-24T08:28:09.619Z,4.87
2023-02-24T08:30:40.964Z,4.70
2023-02-24T08:33:11.210Z,4.27
2023-02-24T08:35:45.073Z,5.00
2023-02-24T08:38:16.590Z,3.33
2023-02-24T08:40:55.160Z,4.33
2023-02-24T08:43:34.147Z,4.47
2023-02-24T08:46:12.750Z,4.13
2023-02-24T08:48:43.490Z,3.80
2023-02-24T08:51:17.942Z,3.90
2023-02-24T08:53:47.392Z,3.70
2023-02-24T08:56:24.370Z,4.13
2023-02-24T08:58:58.335Z,3.10
2023-02-24T09:01:34.767Z,5.40
2023-02-24T09:04:05.651Z,4.33
2023-02-24T09:06:40.937Z,4.40
2023-02-24T09:09:18.824Z,4.50
2023-02-24T09:11:49.524Z,3.77
2023-02-24T09:14:28.959Z,2.53
2023-02-24T09:17:06.256Z,3.10
2023-02-24T09:20:02.176Z,3.77
2023-02-24T09:22:31.712Z,2.97
2023-02-24T09:25:24.152Z,3.97
2023-02-24T09:27:55.854Z,3.37
2023-02-24T09:30:38.137Z,3.87
2023-02-24T09:33:18.097Z,2.80
2023-02-24T09:35:48.812Z,3.77
2023-02-24T09:38:20.223Z,4.07
2023-02-24T09:40:50.848Z,3.43
2023-02-24T09:43:22.093Z,3.13
2023-02-24T09:46:14.718Z,4.00
2023-02-24T09:48:54.492Z,2.70
2023-02-24T09:51:29.297Z,2.07
2023-02-24T09:54:02.065Z,2.90
2023-02-24T09:56:42.572Z,2.17
2023-02-24T09:59:26.380Z,3.40
2023-02-24T10:02:04.342Z,3.00
2023-02-24T10:05:07.457Z,3.33
2023-02-24T10:07:44.102Z,1.70
2023-02-24T10:10:21.091Z,3.57
2023-02-24T10:12:53.563Z,3.63
2023-02-24T10:15:56.949Z,2.23
2023-02-24T10:18:31.889Z,3.47
2023-02-24T10:21:07.723Z,2.67
2023-02-24T10:23:56.812Z,2.43
2023-02-24T10:26:34.954Z,2.83
2023-02-24T10:29:22.712Z,3.17
2023-02-24T10:31:57.881Z,2.37
2023-02-24T10:34:32.005Z,3.00
2023-02-24T10:37:07.750Z,2.77
2023-02-24T10:39:35.944Z,2.43
2023-02-24T10:42:22.758Z,2.40
2023-02-24T10:45:02.317Z,2.33
2023-02-24T10:47:32.754Z,2.03
2023-02-24T10:50:05.373Z,2.57
2023-02-24T10:52:51.026Z,1.93
2023-02-24T10:55:39.420Z,1.33
2023-02-24T10:58:16.090Z,1.80
2023-02-24T11:01:12.701Z,1.63
2023-02-24T11:03:48.219Z,3.07
2023-02-24T11:06:42.516Z,2.50
2023-02-24T11:09:32.461Z,2.90
2023-02-24T11:12:24.250Z,4.13
2023-02-24T11:15:13.432Z,2.77
2023-02-24T11:17:51.022Z,2.20
2023-02-24T11:20:47.726Z,1.70
2023-02-24T11:23:21.696Z,2.10
2023-02-24T11:25:53.585Z,1.97
2023-02-24T11:28:49.668Z,2.93
2023-02-24T11:31:36.360Z,2.73
2023-02-24T11:34:10.413Z,2.13
2023-02-24T11:36:47.712Z,1.30
2023-02-24T11:39:33.630Z,2.67
2023-02-24T11:42:06.055Z,2.07
2023-02-24T11:44:42.583Z,2.53
2023-02-24T11:47:17.939Z,1.43
2023-02-24T11:49:50.723Z,2.93
2023-02-24T11:52:25.097Z,2.33
2023-02-24T11:54:57.957Z,2.17
2023-02-24T11:57:35.485Z,2.40
2023-02-24T12:00:13.505Z,2.47
2023-02-24T12:02:49.070Z,1.77
2023-02-24T12:05:21.180Z,2.03
2023-02-24T12:07:52.642Z,2.20
2023-02-24T12:10:26.244Z,2.67
2023-02-24T12:13:02.202Z,1.80
2023-02-24T12:15:34.237Z,1.67
2023-02-24T12:18:13.709Z,2.27
2023-02-24T12:20:46.910Z,1.60
2023-02-24T12:23:19.381Z,1.97
2023-02-24T12:26:06.981Z,1.93
2023-02-24T12:28:54.872Z,1.40
2023-02-24T12:31:32.268Z,2.17
2023-02-24T12:34:09.869Z,1.37
2023-02-24T12:36:55.333Z,1.23
2023-02-24T12:39:31.924Z,2.23
2023-02-24T12:42:13.657Z,1.73
2023-02-24T12:44:49.889Z,2.33
2023-02-24T12:47:26.584Z,1.97
2023-02-24T12:50:25.441Z,2.00
2023-02-24T12:53:07.596Z,1.60
2023-02-24T12:55:44.861Z,1.17
2023-02-24T12:58:19.201Z,1.47
2023-02-24T13:00:58.923Z,1.40
2023-02-24T13:03:41.288Z,1.03
2023-02-24T13:06:18.109Z,1.40
2023-02-24T13:08:56.520Z,1.63
2023-02-24T13:11:37.588Z,1.23
2023-02-24T13:14:16.247Z,1.27
2023-02-24T13:16:44.358Z,1.77
2023-02-24T13:19:21.954Z,1.33
2023-02-24T13:21:57.808Z,2.10
2023-02-24T13:24:27.673Z,2.17
2023-02-24T13:27:07.013Z,1.57
2023-02-24T13:29:47.154Z,1.50
2023-02-24T13:32:31.766Z,1.60
2023-02-24T13:35:02.571Z,1.27
2023-02-24T13:37:34.500Z,1.50
2023-02-24T13:40:13.752Z,1.15
2023-02-24T13:42:42.244Z,1.35
2023-02-24T13:45:21.853Z,2.00
2023-02-24T13:48:11.492Z,2.05
2023-02-24T13:50:53.364Z,1.50
2023-02-24T13:53:43.117Z,1.55
2023-02-24T13:56:36.893Z,1.17
2023-02-24T13:59:18.331Z,1.10
2023-02-24T14:01:51.334Z,1.08
2023-02-24T14:04:22.624Z,1.48
2023-02-24T14:06:54.392Z,1.20
2023-02-24T14:09:26.970Z,1.35
2023-02-24T14:12:01.055Z,2.63
2023-02-24T14:14:30.675Z,1.75
2023-02-24T14:17:00.356Z,1.52
2023-02-24T14:19:28.579Z,1.70
2023-02-24T14:21:58.538Z,1.35
2023-02-24T14:24:29.131Z,1.92
2023-02-24T14:26:59.078Z,1.95
2023-02-24T14:29:32.182Z,2.38
2023-02-24T14:32:02.651Z,2.83
2023-02-24T14:34:34.043Z,2.10
2023-02-24T14:37:05.313Z,2.05
2023-02-24T14:39:34.458Z,1.42
2023-02-24T14:42:13.364Z,2.70
2023-02-24T14:44:46.145Z,2.45
2023-02-24T14:47:18.471Z,2.05
2023-02-24T14:49:55.795Z,1.77
2023-02-24T14:52:32.945Z,2.60
2023-02-24T14:55:05.302Z,1.58
2023-02-24T14:57:37.299Z,2.22
2023-02-24T15:00:13.149Z,2.05
2023-02-24T15:02:47.738Z,2.15
2023-02-24T15:05:16.989Z,2.35
2023-02-24T15:07:46.357Z,1.88
2023-02-24T15:10:23.561Z,2.80
2023-02-24T15:12:55.642Z,1.98
2023-02-24T15:15:27.279Z,1.73
2023-02-24T15:18:00.374Z,1.63
2023-02-24T15:20:31.299Z,1.25
2023-02-24T15:22:59.981Z,1.27
2023-02-24T15:25:42.242Z,2.13
2023-02-24T15:28:24.506Z,1.52
2023-02-24T15:31:01.688Z,1.88
2023-02-24T15:33:36.277Z,1.27
2023-02-24T15:36:10.172Z,2.90
2023-02-24T15:38:41.372Z,2.47
2023-02-24T15:41:11.354Z,1.83
2023-02-24T15:43:46.441Z,0.83
2023-02-24T15:46:24.239Z,1.77
2023-02-24T15:48:55.619Z,0.93
2023-02-24T15:51:32.295Z,0.60
2023-02-24T15:54:02.357Z,1.27
2023-02-24T15:56:33.551Z,2.07
2023-02-24T15:59:02.696Z,2.03
2023-02-24T16:01:32.775Z,2.30
2023-02-24T16:04:04.774Z,1.10
2023-02-24T16:06:34.129Z,1.33
2023-02-24T16:09:05.356Z,1.63
2023-02-24T16:11:38.741Z,1.50
2023-02-24T16:14:07.102Z,1.23
2023-02-24T16:16:35.286Z,2.80
2023-02-24T16:19:04.739Z,1.57
2023-02-24T16:21:32.930Z,2.20
2023-02-24T16:24:01.108Z,1.20
2023-02-24T16:26:29.660Z,1.57
2023-02-24T16:28:59.446Z,1.27
2023-02-24T16:31:28.599Z,1.53
2023-02-24T16:33:58.646Z,1.33
2023-02-24T16:36:30.649Z,1.73
2023-02-24T16:38:59.331Z,1.87
2023-02-24T16:41:27.912Z,1.23
2023-02-24T16:43:56.425Z,1.90
2023-02-24T16:46:27.488Z,1.63
2023-02-24T16:48:56.075Z,1.17
2023-02-24T16:51:24.695Z,1.00
2023-02-24T16:53:54.643Z,2.00
2023-02-24T16:56:23.601Z,1.17
2023-02-24T16:58:52.108Z,1.30
2023-02-24T17:01:22.620Z,1.77
2023-02-24T17:03:54.078Z,1.47
2023-02-24T17:06:24.012Z,1.30
2023-02-24T17:08:54.384Z,1.13
2023-02-24T17:11:25.189Z,2.37
2023-02-24T17:13:53.607Z,1.93
2023-02-24T17:16:22.283Z,1.07
2023-02-24T17:18:50.708Z,1.17
2023-02-24T17:21:19.296Z,1.10
2023-02-24T17:23:47.530Z,1.43
2023-02-24T17:26:17.567Z,1.40
2023-02-24T17:28:45.909Z,0.80
2023-02-24T17:31:14.284Z,1.20
2023-02-24T17:33:44.862Z,1.27
2023-02-24T17:36:12.985Z,2.03
2023-02-24T17:38:41.221Z,1.70
2023-02-24T17:41:09.452Z,0.70
2023-02-24T17:43:39.174Z,1.00
2023-02-24T17:46:07.704Z,1.00
2023-02-24T17:48:36.425Z,1.07
2023-02-24T17:51:04.865Z,0.70
2023-02-24T17:53:33.150Z,0.83
2023-02-24T17:56:05.304Z,0.90
2023-02-24T17:58:34.624Z,0.70
2023-02-24T18:01:05.819Z,0.90
2023-02-24T18:03:35.166Z,0.50
2023-02-24T18:06:06.586Z,1.07
2023-02-24T18:08:35.950Z,1.00
2023-02-24T18:11:05.390Z,1.07
2023-02-24T18:13:33.939Z,1.27
2023-02-24T18:16:03.534Z,0.93
2023-02-24T18:18:31.862Z,0.80
2023-02-24T18:21:03.366Z,1.07
2023-02-24T18:23:31.737Z,1.37
2023-02-24T18:26:03.227Z,1.77
2023-02-24T18:28:32.080Z,1.20
2023-02-24T18:31:03.435Z,1.23
2023-02-24T18:33:33.266Z,0.50
2023-02-24T18:36:02.367Z,0.60
2023-02-24T18:38:30.723Z,1.27
2023-02-24T18:41:00.256Z,1.23
2023-02-24T18:43:28.539Z,0.70
2023-02-24T18:45:58.141Z,0.93
2023-02-24T18:48:26.535Z,1.10
2023-02-24T18:50:57.014Z,1.27
2023-02-24T18:53:27.110Z,1.13
2023-02-24T18:56:01.188Z,1.07
2023-02-24T18:58:29.420Z,0.77
2023-02-24T19:00:57.870Z,0.40
2023-02-24T19:03:26.636Z,1.10
2023-02-24T19:05:56.216Z,0.97
2023-02-24T19:08:24.736Z,0.77
2023-02-24T19:10:52.816Z,2.37
2023-02-24T19:13:21.012Z,0.50
2023-02-24T19:15:49.246Z,0.90
2023-02-24T19:18:17.813Z,0.60
2023-02-24T19:20:46.321Z,1.43
2023-02-24T19:23:15.945Z,0.97
2023-02-24T19:25:44.170Z,1.90
2023-02-24T19:28:12.428Z,2.40
2023-02-24T19:30:41.218Z,1.30
2023-02-24T19:33:09.935Z,0.70
2023-02-24T19:35:41.341Z,2.00
2023-02-24T19:38:09.994Z,1.00
2023-02-24T19:40:39.681Z,0.93
2023-02-24T19:43:08.037Z,0.97
2023-02-24T19:45:36.757Z,1.03
2023-02-24T19:48:05.218Z,0.93
2023-02-24T19:50:33.546Z,0.70
2023-02-24T19:53:01.804Z,1.50
2023-02-24T19:55:30.084Z,2.00
2023-02-24T19:57:59.880Z,0.80
2023-02-24T20:00:28.111Z,1.37
2023-02-24T20:02:56.285Z,1.93
2023-02-24T20:05:24.989Z,1.23
2023-02-24T20:07:53.312Z,1.50
2023-02-24T20:10:21.723Z,0.90
2023-02-24T20:12:50.175Z,1.20
2023-02-24T20:15:19.967Z,1.43
2023-02-24T20:17:49.817Z,2.27
2023-02-24T20:20:18.295Z,1.30
2023-02-24T20:22:46.450Z,1.80
2023-02-24T20:25:15.509Z,0.80
2023-02-24T20:27:43.852Z,1.10
2023-02-24T20:30:14.079Z,1.13
2023-02-24T20:32:43.933Z,1.27
2023-02-24T20:35:12.330Z,1.37
2023-02-24T20:37:40.771Z,1.17
2023-02-24T20:40:10.695Z,1.43
2023-02-24T20:42:39.567Z,0.93
2023-02-24T20:45:09.159Z,0.93
2023-02-24T20:47:37.351Z,1.80
2023-02-24T20:50:07.448Z,1.00
2023-02-24T20:52:37.734Z,0.70
2023-02-24T20:55:06.456Z,1.30
2023-02-24T20:57:34.715Z,1.13
2023-02-24T21:00:08.160Z,0.77
2023-02-24T21:02:36.820Z,0.90
2023-02-24T21:05:06.979Z,1.20
2023-02-24T21:07:37.073Z,0.80
2023-02-24T21:10:05.971Z,1.37
2023-02-24T21:12:34.158Z,2.30
2023-02-24T21:15:02.332Z,1.57
2023-02-24T21:17:30.793Z,0.67
2023-02-24T21:19:58.927Z,0.70
2023-02-24T21:22:31.351Z,0.73
2023-02-24T21:24:59.859Z,1.23
2023-02-24T21:27:28.035Z,1.73
2023-02-24T21:29:56.207Z,0.60
2023-02-24T21:32:24.744Z,0.70
2023-02-24T21:34:53.582Z,1.30
2023-02-24T21:37:21.932Z,0.73
2023-02-24T21:39:51.524Z,0.87
2023-02-24T21:42:19.725Z,2.30
2023-02-24T21:44:47.959Z,1.13
2023-02-24T21:47:16.158Z,0.90
2023-02-24T21:49:46.355Z,0.80
2023-02-24T21:52:14.840Z,0.60
2023-02-24T21:54:43.342Z,0.90
2023-02-24T21:57:12.975Z,0.90
2023-02-24T21:59:41.139Z,1.20
2023-02-24T22:02:13.165Z,0.83
2023-02-24T22:04:41.326Z,1.17
2023-02-24T22:07:09.375Z,1.13
2023-02-24T22:09:37.624Z,1.50
2023-02-24T22:12:06.770Z,1.03
2023-02-24T22:14:36.292Z,0.70
2023-02-24T22:17:04.505Z,1.33
2023-02-24T22:19:32.558Z,0.57
2023-02-24T22:22:00.838Z,0.57
2023-02-24T22:24:28.882Z,1.30
2023-02-24T22:26:56.965Z,0.60
2023-02-24T22:29:25.067Z,0.90
2023-02-24T22:31:54.764Z,1.40
2023-02-24T22:34:22.966Z,0.40
2023-02-24T22:36:51.150Z,1.30
2023-02-24T22:39:19.320Z,1.07
2023-02-24T22:41:47.934Z,1.00
2023-02-24T22:44:19.330Z,0.60
2023-02-24T22:46:47.603Z,0.77
2023-02-24T22:49:17.385Z,1.07
2023-02-24T22:51:45.710Z,1.00
2023-02-24T22:54:13.843Z,1.23
2023-02-24T22:56:42.057Z,0.77
2023-02-24T22:59:11.325Z,1.20
2023-02-24T23:01:40.242Z,0.63
2023-02-24T23:04:13.625Z,2.20
2023-02-24T23:06:44.561Z,1.57
2023-02-24T23:09:13.380Z,1.73
2023-02-24T23:11:42.848Z,1.07
2023-02-24T23:14:14.598Z,2.23
2023-02-24T23:16:44.652Z,1.27
2023-02-24T23:19:17.600Z,1.10
2023-02-24T23:21:49.804Z,1.20
2023-02-24T23:24:19.421Z,0.93
2023-02-24T23:26:49.383Z,0.63
2023-02-24T23:29:19.201Z,1.70
2023-02-24T23:31:47.759Z,0.47
2023-02-24T23:34:16.617Z,1.03
2023-02-24T23:36:47.747Z,1.43
2023-02-24T23:39:20.512Z,1.20
2023-02-24T23:41:49.513Z,0.87
2023-02-24T23:44:17.624Z,1.33
2023-02-24T23:46:46.694Z,2.63
2023-02-24T23:49:14.860Z,1.50
2023-02-24T23:51:48.384Z,1.10
2023-02-24T23:54:19.050Z,1.33
2023-02-24T23:56:47.462Z,1.50
2023-02-24T23:59:16.054Z,1.43
